sensor_id;sensor_type;location;lat;lon;timestamp;pressure;altitude;pressure_sealevel;temperature;humidity
74905;BME280;63465;50.862;6.220;2024-01-30T00:01:00;100987.78;;;9.02;100.00
74905;BME280;63465;50.862;6.220;2024-01-30T00:03:26;100987.94;;;8.99;100.00
74905;BME280;63465;50.862;6.220;2024-01-30T00:05:51;100990.53;;;8.99;100.00
74905;BME280;63465;50.862;6.220;2024-01-30T00:08:17;100995.19;;;9.13;100.00
74905;BME280;63465;50.862;6.220;2024-01-30T00:10:42;100990.38;;;9.22;100.00
74905;BME280;63465;50.862;6.220;2024-01-30T00:13:08;100977.72;;;9.32;100.00
74905;BME280;63465;50.862;6.220;2024-01-30T00:15:34;100985.47;;;9.54;100.00
74905;BME280;63465;50.862;6.220;2024-01-30T00:17:59;100984.47;;;9.56;100.00
74905;BME280;63465;50.862;6.220;2024-01-30T00:20:25;100975.78;;;9.56;100.00
74905;BME280;63465;50.862;6.220;2024-01-30T00:22:50;100967.19;;;9.52;100.00
74905;BME280;63465;50.862;6.220;2024-01-30T00:25:15;100974.13;;;9.53;100.00
74905;BME280;63465;50.862;6.220;2024-01-30T00:27:41;100972.09;;;9.60;100.00
74905;BME280;63465;50.862;6.220;2024-01-30T00:30:07;100969.81;;;9.71;100.00
74905;BME280;63465;50.862;6.220;2024-01-30T00:32:32;100976.34;;;9.62;100.00
74905;BME280;63465;50.862;6.220;2024-01-30T00:34:57;100967.13;;;9.54;100.00
74905;BME280;63465;50.862;6.220;2024-01-30T00:37:23;100957.44;;;9.56;100.00
74905;BME280;63465;50.862;6.220;2024-01-30T00:39:48;100963.31;;;9.42;100.00
74905;BME280;63465;50.862;6.220;2024-01-30T00:42:14;100965.78;;;9.26;100.00
74905;BME280;63465;50.862;6.220;2024-01-30T00:44:39;100960.88;;;9.19;100.00
74905;BME280;63465;50.862;6.220;2024-01-30T00:47:05;100962.94;;;9.31;100.00
74905;BME280;63465;50.862;6.220;2024-01-30T00:49:31;100964.63;;;9.13;100.00
74905;BME280;63465;50.862;6.220;2024-01-30T00:51:56;100967.75;;;8.82;100.00
74905;BME280;63465;50.862;6.220;2024-01-30T00:54:21;100960.22;;;8.54;100.00
74905;BME280;63465;50.862;6.220;2024-01-30T00:56:46;100962.25;;;8.26;100.00
74905;BME280;63465;50.862;6.220;2024-01-30T00:59:12;100969.97;;;8.51;100.00
74905;BME280;63465;50.862;6.220;2024-01-30T01:01:37;100963.50;;;8.59;100.00
74905;BME280;63465;50.862;6.220;2024-01-30T01:04:02;100969.25;;;8.67;100.00
74905;BME280;63465;50.862;6.220;2024-01-30T01:06:28;100972.38;;;8.76;100.00
74905;BME280;63465;50.862;6.220;2024-01-30T01:08:53;100964.84;;;8.88;100.00
74905;BME280;63465;50.862;6.220;2024-01-30T01:11:18;100960.97;;;8.97;100.00
74905;BME280;63465;50.862;6.220;2024-01-30T01:13:43;100965.38;;;8.76;100.00
74905;BME280;63465;50.862;6.220;2024-01-30T01:16:09;100965.84;;;8.86;100.00
74905;BME280;63465;50.862;6.220;2024-01-30T01:18:34;100972.50;;;8.52;100.00
74905;BME280;63465;50.862;6.220;2024-01-30T01:20:59;100972.19;;;8.60;100.00
74905;BME280;63465;50.862;6.220;2024-01-30T01:23:25;100969.03;;;8.52;100.00
74905;BME280;63465;50.862;6.220;2024-01-30T01:25:51;100964.44;;;8.36;100.00
74905;BME280;63465;50.862;6.220;2024-01-30T01:28:16;100960.34;;;8.29;100.00
74905;BME280;63465;50.862;6.220;2024-01-30T01:30:41;100961.31;;;8.49;100.00
74905;BME280;63465;50.862;6.220;2024-01-30T01:33:07;100961.84;;;8.57;100.00
74905;BME280;63465;50.862;6.220;2024-01-30T01:35:32;100954.50;;;9.06;100.00
74905;BME280;63465;50.862;6.220;2024-01-30T01:37:57;100952.97;;;8.81;100.00
74905;BME280;63465;50.862;6.220;2024-01-30T01:40:25;100958.09;;;9.03;100.00
74905;BME280;63465;50.862;6.220;2024-01-30T01:42:51;100955.50;;;8.62;100.00
74905;BME280;63465;50.862;6.220;2024-01-30T01:45:18;100952.41;;;8.93;100.00
74905;BME280;63465;50.862;6.220;2024-01-30T01:47:43;100952.75;;;9.25;100.00
74905;BME280;63465;50.862;6.220;2024-01-30T01:50:12;100947.06;;;9.90;100.00
74905;BME280;63465;50.862;6.220;2024-01-30T01:52:39;100945.16;;;10.11;100.00
74905;BME280;63465;50.862;6.220;2024-01-30T01:55:05;100950.25;;;10.14;100.00
74905;BME280;63465;50.862;6.220;2024-01-30T01:57:31;100944.88;;;10.17;100.00
74905;BME280;63465;50.862;6.220;2024-01-30T01:59:56;100951.38;;;10.27;100.00
74905;BME280;63465;50.862;6.220;2024-01-30T02:02:24;100941.59;;;10.31;100.00
74905;BME280;63465;50.862;6.220;2024-01-30T02:04:50;100940.91;;;10.27;100.00
74905;BME280;63465;50.862;6.220;2024-01-30T02:07:16;100946.06;;;10.29;100.00
74905;BME280;63465;50.862;6.220;2024-01-30T02:09:42;100942.13;;;9.84;100.00
74905;BME280;63465;50.862;6.220;2024-01-30T02:12:07;100935.75;;;9.71;100.00
74905;BME280;63465;50.862;6.220;2024-01-30T02:14:32;100942.94;;;9.30;100.00
74905;BME280;63465;50.862;6.220;2024-01-30T02:16:58;100939.09;;;9.37;100.00
74905;BME280;63465;50.862;6.220;2024-01-30T02:19:23;100939.19;;;9.35;100.00
74905;BME280;63465;50.862;6.220;2024-01-30T02:21:49;100936.69;;;9.14;100.00
74905;BME280;63465;50.862;6.220;2024-01-30T02:24:14;100937.75;;;9.10;100.00
74905;BME280;63465;50.862;6.220;2024-01-30T02:26:40;100934.22;;;9.29;100.00
74905;BME280;63465;50.862;6.220;2024-01-30T02:29:05;100924.47;;;9.33;100.00
74905;BME280;63465;50.862;6.220;2024-01-30T02:31:31;100936.69;;;9.14;100.00
74905;BME280;63465;50.862;6.220;2024-01-30T02:33:56;100935.47;;;9.77;100.00
74905;BME280;63465;50.862;6.220;2024-01-30T02:36:21;100923.94;;;9.62;100.00
74905;BME280;63465;50.862;6.220;2024-01-30T02:38:47;100923.81;;;9.65;100.00
74905;BME280;63465;50.862;6.220;2024-01-30T02:41:12;100927.44;;;9.99;100.00
74905;BME280;63465;50.862;6.220;2024-01-30T02:43:38;100920.56;;;10.32;100.00
74905;BME280;63465;50.862;6.220;2024-01-30T02:46:03;100909.13;;;10.34;100.00
74905;BME280;63465;50.862;6.220;2024-01-30T02:48:28;100919.28;;;10.41;100.00
74905;BME280;63465;50.862;6.220;2024-01-30T02:50:54;100912.72;;;10.50;100.00
74905;BME280;63465;50.862;6.220;2024-01-30T02:53:19;100908.63;;;10.44;100.00
74905;BME280;63465;50.862;6.220;2024-01-30T02:55:44;100906.16;;;10.58;100.00
74905;BME280;63465;50.862;6.220;2024-01-30T02:58:09;100902.66;;;10.58;100.00
74905;BME280;63465;50.862;6.220;2024-01-30T03:00:35;100904.53;;;10.56;100.00
74905;BME280;63465;50.862;6.220;2024-01-30T03:03:00;100900.13;;;10.56;100.00
74905;BME280;63465;50.862;6.220;2024-01-30T03:05:25;100887.41;;;10.49;100.00
74905;BME280;63465;50.862;6.220;2024-01-30T03:07:51;100895.72;;;10.57;100.00
74905;BME280;63465;50.862;6.220;2024-01-30T03:10:16;100891.34;;;10.57;100.00
74905;BME280;63465;50.862;6.220;2024-01-30T03:12:41;100895.59;;;10.43;100.00
74905;BME280;63465;50.862;6.220;2024-01-30T03:15:07;100892.81;;;10.46;100.00
74905;BME280;63465;50.862;6.220;2024-01-30T03:17:32;100907.78;;;10.44;100.00
74905;BME280;63465;50.862;6.220;2024-01-30T03:19:57;100906.34;;;10.37;100.00
74905;BME280;63465;50.862;6.220;2024-01-30T03:22:23;100896.94;;;10.32;100.00
74905;BME280;63465;50.862;6.220;2024-01-30T03:24:48;100901.28;;;10.34;100.00
74905;BME280;63465;50.862;6.220;2024-01-30T03:27:14;100901.72;;;10.24;100.00
74905;BME280;63465;50.862;6.220;2024-01-30T03:29:39;100904.31;;;10.43;100.00
74905;BME280;63465;50.862;6.220;2024-01-30T03:32:04;100898.28;;;10.41;100.00
74905;BME280;63465;50.862;6.220;2024-01-30T03:34:30;100901.84;;;10.40;100.00
74905;BME280;63465;50.862;6.220;2024-01-30T03:36:55;100894.97;;;10.55;100.00
74905;BME280;63465;50.862;6.220;2024-01-30T03:39:20;100898.19;;;10.60;100.00
74905;BME280;63465;50.862;6.220;2024-01-30T03:41:46;100893.25;;;10.54;100.00
74905;BME280;63465;50.862;6.220;2024-01-30T03:44:11;100899.25;;;10.39;100.00
74905;BME280;63465;50.862;6.220;2024-01-30T03:46:36;100897.81;;;10.33;100.00
74905;BME280;63465;50.862;6.220;2024-01-30T03:49:02;100891.66;;;10.51;100.00
74905;BME280;63465;50.862;6.220;2024-01-30T03:51:28;100881.69;;;10.58;100.00
74905;BME280;63465;50.862;6.220;2024-01-30T03:53:53;100889.03;;;10.51;100.00
74905;BME280;63465;50.862;6.220;2024-01-30T03:56:18;100884.25;;;10.42;100.00
74905;BME280;63465;50.862;6.220;2024-01-30T03:58:44;100877.59;;;10.52;100.00
74905;BME280;63465;50.862;6.220;2024-01-30T04:01:15;100877.34;;;10.40;100.00
74905;BME280;63465;50.862;6.220;2024-01-30T04:03:41;100887.22;;;10.35;100.00
74905;BME280;63465;50.862;6.220;2024-01-30T04:06:07;100882.47;;;10.43;100.00
74905;BME280;63465;50.862;6.220;2024-01-30T04:08:33;100879.13;;;10.39;100.00
74905;BME280;63465;50.862;6.220;2024-01-30T04:10:58;100874.69;;;10.41;100.00
74905;BME280;63465;50.862;6.220;2024-01-30T04:13:23;100881.47;;;10.45;100.00
74905;BME280;63465;50.862;6.220;2024-01-30T04:15:48;100880.63;;;10.45;100.00
74905;BME280;63465;50.862;6.220;2024-01-30T04:18:14;100888.31;;;10.30;100.00
74905;BME280;63465;50.862;6.220;2024-01-30T04:20:39;100869.72;;;10.35;100.00
74905;BME280;63465;50.862;6.220;2024-01-30T04:23:04;100870.81;;;10.48;100.00
74905;BME280;63465;50.862;6.220;2024-01-30T04:25:29;100862.56;;;10.39;100.00
74905;BME280;63465;50.862;6.220;2024-01-30T04:27:55;100870.28;;;10.42;100.00
74905;BME280;63465;50.862;6.220;2024-01-30T04:30:20;100864.72;;;10.48;100.00
74905;BME280;63465;50.862;6.220;2024-01-30T04:32:45;100861.94;;;10.51;100.00
74905;BME280;63465;50.862;6.220;2024-01-30T04:35:11;100865.91;;;10.42;100.00
74905;BME280;63465;50.862;6.220;2024-01-30T04:37:36;100870.75;;;10.50;100.00
74905;BME280;63465;50.862;6.220;2024-01-30T04:40:02;100871.28;;;10.56;100.00
74905;BME280;63465;50.862;6.220;2024-01-30T04:42:28;100866.44;;;10.49;100.00
74905;BME280;63465;50.862;6.220;2024-01-30T04:44:53;100863.97;;;10.46;100.00
74905;BME280;63465;50.862;6.220;2024-01-30T04:47:19;100868.72;;;10.38;100.00
74905;BME280;63465;50.862;6.220;2024-01-30T04:49:44;100862.72;;;10.53;100.00
74905;BME280;63465;50.862;6.220;2024-01-30T04:52:09;100867.78;;;10.39;100.00
74905;BME280;63465;50.862;6.220;2024-01-30T04:54:35;100865.50;;;10.32;100.00
74905;BME280;63465;50.862;6.220;2024-01-30T04:57:01;100869.56;;;10.38;100.00
74905;BME280;63465;50.862;6.220;2024-01-30T04:59:26;100868.13;;;10.50;100.00
74905;BME280;63465;50.862;6.220;2024-01-30T05:01:52;100870.13;;;10.27;100.00
74905;BME280;63465;50.862;6.220;2024-01-30T05:04:17;100867.25;;;10.32;100.00
74905;BME280;63465;50.862;6.220;2024-01-30T05:06:43;100868.03;;;10.34;100.00
74905;BME280;63465;50.862;6.220;2024-01-30T05:09:08;100871.72;;;10.30;100.00
74905;BME280;63465;50.862;6.220;2024-01-30T05:11:41;100867.41;;;10.29;100.00
74905;BME280;63465;50.862;6.220;2024-01-30T05:14:07;100866.75;;;10.43;100.00
74905;BME280;63465;50.862;6.220;2024-01-30T05:16:32;100863.13;;;10.45;100.00
74905;BME280;63465;50.862;6.220;2024-01-30T05:18:58;100866.50;;;10.47;100.00
74905;BME280;63465;50.862;6.220;2024-01-30T05:21:24;100858.47;;;10.50;100.00
74905;BME280;63465;50.862;6.220;2024-01-30T05:23:49;100868.03;;;10.51;100.00
74905;BME280;63465;50.862;6.220;2024-01-30T05:26:14;100856.47;;;10.55;100.00
74905;BME280;63465;50.862;6.220;2024-01-30T05:28:40;100850.66;;;10.66;100.00
74905;BME280;63465;50.862;6.220;2024-01-30T05:31:05;100853.28;;;10.66;100.00
74905;BME280;63465;50.862;6.220;2024-01-30T05:33:30;100852.97;;;10.72;100.00
74905;BME280;63465;50.862;6.220;2024-01-30T05:35:55;100851.13;;;10.90;100.00
74905;BME280;63465;50.862;6.220;2024-01-30T05:38:21;100843.16;;;10.91;100.00
74905;BME280;63465;50.862;6.220;2024-01-30T05:40:46;100843.34;;;10.88;100.00
74905;BME280;63465;50.862;6.220;2024-01-30T05:43:12;100846.06;;;11.03;100.00
74905;BME280;63465;50.862;6.220;2024-01-30T05:45:37;100838.41;;;10.82;100.00
74905;BME280;63465;50.862;6.220;2024-01-30T05:48:02;100827.41;;;10.76;100.00
74905;BME280;63465;50.862;6.220;2024-01-30T05:50:28;100843.09;;;10.60;100.00
74905;BME280;63465;50.862;6.220;2024-01-30T05:52:53;100836.16;;;10.59;100.00
74905;BME280;63465;50.862;6.220;2024-01-30T05:55:18;100828.41;;;10.73;100.00
74905;BME280;63465;50.862;6.220;2024-01-30T05:57:44;100828.91;;;10.64;100.00
74905;BME280;63465;50.862;6.220;2024-01-30T06:00:09;100838.72;;;10.60;100.00
74905;BME280;63465;50.862;6.220;2024-01-30T06:02:35;100832.91;;;10.71;100.00
74905;BME280;63465;50.862;6.220;2024-01-30T06:05:01;100834.00;;;10.67;100.00
74905;BME280;63465;50.862;6.220;2024-01-30T06:07:26;100845.81;;;10.58;100.00
74905;BME280;63465;50.862;6.220;2024-01-30T06:09:51;100855.84;;;10.50;100.00
74905;BME280;63465;50.862;6.220;2024-01-30T06:12:16;100848.38;;;10.43;100.00
74905;BME280;63465;50.862;6.220;2024-01-30T06:14:42;100858.09;;;10.41;100.00
74905;BME280;63465;50.862;6.220;2024-01-30T06:17:08;100850.00;;;10.28;100.00
74905;BME280;63465;50.862;6.220;2024-01-30T06:19:33;100849.22;;;10.26;100.00
74905;BME280;63465;50.862;6.220;2024-01-30T06:21:59;100857.25;;;10.23;100.00
74905;BME280;63465;50.862;6.220;2024-01-30T06:24:24;100846.09;;;10.18;100.00
74905;BME280;63465;50.862;6.220;2024-01-30T06:26:49;100850.75;;;10.30;100.00
74905;BME280;63465;50.862;6.220;2024-01-30T06:29:14;100851.53;;;10.32;100.00
74905;BME280;63465;50.862;6.220;2024-01-30T06:31:41;100838.66;;;10.45;100.00
74905;BME280;63465;50.862;6.220;2024-01-30T06:34:07;100838.94;;;10.39;100.00
74905;BME280;63465;50.862;6.220;2024-01-30T06:36:34;100838.94;;;10.39;100.00
74905;BME280;63465;50.862;6.220;2024-01-30T06:38:59;100847.06;;;10.34;100.00
74905;BME280;63465;50.862;6.220;2024-01-30T06:41:24;100842.22;;;10.44;100.00
74905;BME280;63465;50.862;6.220;2024-01-30T06:43:50;100828.38;;;10.57;100.00
74905;BME280;63465;50.862;6.220;2024-01-30T06:46:15;100827.59;;;10.88;100.00
74905;BME280;63465;50.862;6.220;2024-01-30T06:48:40;100828.53;;;10.87;100.00
74905;BME280;63465;50.862;6.220;2024-01-30T06:51:06;100829.72;;;10.98;100.00
74905;BME280;63465;50.862;6.220;2024-01-30T06:53:31;100827.25;;;10.94;100.00
74905;BME280;63465;50.862;6.220;2024-01-30T06:55:57;100824.72;;;10.93;100.00
74905;BME280;63465;50.862;6.220;2024-01-30T06:58:22;100834.97;;;10.98;100.00
74905;BME280;63465;50.862;6.220;2024-01-30T07:00:47;100833.09;;;11.00;100.00
74905;BME280;63465;50.862;6.220;2024-01-30T07:03:13;100816.16;;;10.89;100.00
74905;BME280;63465;50.862;6.220;2024-01-30T07:05:38;100824.56;;;10.96;100.00
74905;BME280;63465;50.862;6.220;2024-01-30T07:08:03;100825.06;;;11.03;100.00
74905;BME280;63465;50.862;6.220;2024-01-30T07:10:29;100829.81;;;11.12;100.00
74905;BME280;63465;50.862;6.220;2024-01-30T07:12:54;100835.47;;;10.88;100.00
74905;BME280;63465;50.862;6.220;2024-01-30T07:15:19;100835.97;;;10.95;100.00
74905;BME280;63465;50.862;6.220;2024-01-30T07:17:45;100841.22;;;10.95;100.00
74905;BME280;63465;50.862;6.220;2024-01-30T07:20:11;100837.44;;;11.01;100.00
74905;BME280;63465;50.862;6.220;2024-01-30T07:22:36;100848.59;;;10.88;100.00
74905;BME280;63465;50.862;6.220;2024-01-30T07:25:02;100847.50;;;10.92;100.00
74905;BME280;63465;50.862;6.220;2024-01-30T07:27:27;100852.31;;;11.00;100.00
74905;BME280;63465;50.862;6.220;2024-01-30T07:29:52;100845.97;;;11.04;100.00
74905;BME280;63465;50.862;6.220;2024-01-30T07:32:18;100858.84;;;11.09;100.00
74905;BME280;63465;50.862;6.220;2024-01-30T07:34:43;100855.97;;;10.98;100.00
74905;BME280;63465;50.862;6.220;2024-01-30T07:37:09;100853.75;;;10.90;100.00
74905;BME280;63465;50.862;6.220;2024-01-30T07:39:35;100854.28;;;10.97;100.00
74905;BME280;63465;50.862;6.220;2024-01-30T07:42:01;100856.91;;;10.97;100.00
74905;BME280;63465;50.862;6.220;2024-01-30T07:44:26;100860.19;;;11.00;100.00
74905;BME280;63465;50.862;6.220;2024-01-30T07:46:51;100861.81;;;11.03;100.00
74905;BME280;63465;50.862;6.220;2024-01-30T07:49:17;100874.09;;;11.18;100.00
74905;BME280;63465;50.862;6.220;2024-01-30T07:51:42;100871.22;;;11.22;100.00
74905;BME280;63465;50.862;6.220;2024-01-30T07:54:08;100877.84;;;11.14;100.00
74905;BME280;63465;50.862;6.220;2024-01-30T07:56:33;100876.38;;;11.08;100.00
74905;BME280;63465;50.862;6.220;2024-01-30T07:58:58;100883.44;;;11.23;100.00
74905;BME280;63465;50.862;6.220;2024-01-30T08:01:24;100876.41;;;11.24;100.00
74905;BME280;63465;50.862;6.220;2024-01-30T08:03:49;100883.94;;;11.30;100.00
74905;BME280;63465;50.862;6.220;2024-01-30T08:06:14;100891.56;;;11.35;100.00
74905;BME280;63465;50.862;6.220;2024-01-30T08:08:40;100891.47;;;11.36;100.00
74905;BME280;63465;50.862;6.220;2024-01-30T08:11:05;100896.38;;;11.26;100.00
74905;BME280;63465;50.862;6.220;2024-01-30T08:13:30;100909.34;;;11.30;100.00
74905;BME280;63465;50.862;6.220;2024-01-30T08:15:56;100901.13;;;11.20;100.00
74905;BME280;63465;50.862;6.220;2024-01-30T08:18:21;100905.00;;;11.13;100.00
74905;BME280;63465;50.862;6.220;2024-01-30T08:20:46;100914.16;;;11.06;100.00
74905;BME280;63465;50.862;6.220;2024-01-30T08:23:11;100917.94;;;11.00;100.00
74905;BME280;63465;50.862;6.220;2024-01-30T08:25:37;100921.00;;;11.08;100.00
74905;BME280;63465;50.862;6.220;2024-01-30T08:28:03;100931.31;;;10.95;100.00
74905;BME280;63465;50.862;6.220;2024-01-30T08:30:29;100923.53;;;10.94;100.00
74905;BME280;63465;50.862;6.220;2024-01-30T08:32:54;100929.53;;;10.96;100.00
74905;BME280;63465;50.862;6.220;2024-01-30T08:35:19;100933.78;;;10.99;100.00
74905;BME280;63465;50.862;6.220;2024-01-30T08:37:45;100921.94;;;11.07;100.00
74905;BME280;63465;50.862;6.220;2024-01-30T08:40:10;100932.34;;;11.09;100.00
74905;BME280;63465;50.862;6.220;2024-01-30T08:42:35;100926.63;;;11.18;100.00
74905;BME280;63465;50.862;6.220;2024-01-30T08:45:01;100925.16;;;11.12;100.00
74905;BME280;63465;50.862;6.220;2024-01-30T08:47:26;100932.63;;;11.20;100.00
74905;BME280;63465;50.862;6.220;2024-01-30T08:49:52;100940.44;;;11.21;100.00
74905;BME280;63465;50.862;6.220;2024-01-30T08:52:17;100952.50;;;11.41;100.00
74905;BME280;63465;50.862;6.220;2024-01-30T08:54:42;100952.50;;;11.41;100.00
74905;BME280;63465;50.862;6.220;2024-01-30T08:57:08;100956.97;;;11.39;100.00
74905;BME280;63465;50.862;6.220;2024-01-30T08:59:33;100971.81;;;11.40;100.00
74905;BME280;63465;50.862;6.220;2024-01-30T09:01:58;100961.06;;;11.45;100.00
74905;BME280;63465;50.862;6.220;2024-01-30T09:04:24;100957.41;;;11.47;100.00
74905;BME280;63465;50.862;6.220;2024-01-30T09:06:49;100965.94;;;11.35;100.00
74905;BME280;63465;50.862;6.220;2024-01-30T09:09:15;100964.25;;;11.34;100.00
74905;BME280;63465;50.862;6.220;2024-01-30T09:11:40;100963.94;;;11.40;100.00
74905;BME280;63465;50.862;6.220;2024-01-30T09:14:06;100971.31;;;11.49;100.00
74905;BME280;63465;50.862;6.220;2024-01-30T09:16:31;100976.72;;;11.46;100.00
74905;BME280;63465;50.862;6.220;2024-01-30T09:18:57;100977.16;;;11.54;100.00
74905;BME280;63465;50.862;6.220;2024-01-30T09:21:22;100974.63;;;11.53;100.00
74905;BME280;63465;50.862;6.220;2024-01-30T09:23:48;100970.97;;;11.71;100.00
74905;BME280;63465;50.862;6.220;2024-01-30T09:26:13;100984.16;;;11.87;100.00
74905;BME280;63465;50.862;6.220;2024-01-30T09:28:38;100986.09;;;11.83;100.00
74905;BME280;63465;50.862;6.220;2024-01-30T09:31:04;100990.75;;;11.94;99.88
74905;BME280;63465;50.862;6.220;2024-01-30T09:33:29;100990.66;;;12.11;98.45
74905;BME280;63465;50.862;6.220;2024-01-30T09:35:54;100989.91;;;12.09;100.00
74905;BME280;63465;50.862;6.220;2024-01-30T09:38:19;100986.16;;;12.13;100.00
74905;BME280;63465;50.862;6.220;2024-01-30T09:40:49;100996.34;;;12.04;100.00
74905;BME280;63465;50.862;6.220;2024-01-30T09:43:22;100996.09;;;12.08;100.00
74905;BME280;63465;50.862;6.220;2024-01-30T09:45:50;100992.38;;;12.12;100.00
74905;BME280;63465;50.862;6.220;2024-01-30T09:48:15;100990.25;;;12.03;100.00
74905;BME280;63465;50.862;6.220;2024-01-30T09:50:40;100992.53;;;12.09;100.00
74905;BME280;63465;50.862;6.220;2024-01-30T09:53:07;100998.66;;;12.10;100.00
74905;BME280;63465;50.862;6.220;2024-01-30T09:55:34;100998.13;;;12.03;100.00
74905;BME280;63465;50.862;6.220;2024-01-30T09:58:00;100990.59;;;12.13;100.00
74905;BME280;63465;50.862;6.220;2024-01-30T10:00:26;100995.25;;;12.08;100.00
74905;BME280;63465;50.862;6.220;2024-01-30T10:02:52;100990.91;;;12.22;100.00
74905;BME280;63465;50.862;6.220;2024-01-30T10:05:19;100995.41;;;12.20;100.00
74905;BME280;63465;50.862;6.220;2024-01-30T10:07:54;101003.91;;;12.10;100.00
74905;BME280;63465;50.862;6.220;2024-01-30T10:10:23;101004.56;;;12.13;100.00
74905;BME280;63465;50.862;6.220;2024-01-30T10:12:49;100996.88;;;12.10;100.00
74905;BME280;63465;50.862;6.220;2024-01-30T10:15:14;100997.53;;;11.98;100.00
74905;BME280;63465;50.862;6.220;2024-01-30T10:17:39;101002.97;;;11.95;100.00
74905;BME280;63465;50.862;6.220;2024-01-30T10:20:05;100994.16;;;11.96;100.00
74905;BME280;63465;50.862;6.220;2024-01-30T10:22:30;100986.09;;;11.99;100.00
74905;BME280;63465;50.862;6.220;2024-01-30T10:24:56;100991.69;;;11.93;100.00
74905;BME280;63465;50.862;6.220;2024-01-30T10:27:27;100992.03;;;11.87;100.00
74905;BME280;63465;50.862;6.220;2024-01-30T10:29:54;101002.03;;;11.96;100.00
74905;BME280;63465;50.862;6.220;2024-01-30T10:32:20;101020.88;;;11.88;100.00
74905;BME280;63465;50.862;6.220;2024-01-30T10:34:46;101005.69;;;11.94;100.00
74905;BME280;63465;50.862;6.220;2024-01-30T10:37:12;101004.94;;;11.91;100.00
74905;BME280;63465;50.862;6.220;2024-01-30T10:39:40;100993.31;;;11.80;100.00
74905;BME280;63465;50.862;6.220;2024-01-30T10:42:07;100990.16;;;11.89;100.00
74905;BME280;63465;50.862;6.220;2024-01-30T10:44:51;101001.88;;;11.99;100.00
74905;BME280;63465;50.862;6.220;2024-01-30T10:47:26;101001.53;;;11.89;100.00
74905;BME280;63465;50.862;6.220;2024-01-30T10:49:52;100998.97;;;12.04;100.00
74905;BME280;63465;50.862;6.220;2024-01-30T10:52:18;100997.19;;;12.04;100.00
74905;BME280;63465;50.862;6.220;2024-01-30T10:54:44;100999.16;;;12.01;100.00
74905;BME280;63465;50.862;6.220;2024-01-30T10:57:11;101009.06;;;12.11;100.00
74905;BME280;63465;50.862;6.220;2024-01-30T10:59:37;101001.94;;;12.13;100.00
74905;BME280;63465;50.862;6.220;2024-01-30T11:02:04;101001.34;;;12.08;100.00
74905;BME280;63465;50.862;6.220;2024-01-30T11:04:54;100999.66;;;11.91;100.00
74905;BME280;63465;50.862;6.220;2024-01-30T11:07:27;101006.78;;;11.89;100.00
74905;BME280;63465;50.862;6.220;2024-01-30T11:09:59;100996.69;;;11.98;100.00
74905;BME280;63465;50.862;6.220;2024-01-30T11:12:28;101010.09;;;11.93;100.00
74905;BME280;63465;50.862;6.220;2024-01-30T11:15:08;101005.09;;;11.88;100.00
74905;BME280;63465;50.862;6.220;2024-01-30T11:20:15;101006.94;;;11.71;100.00
74905;BME280;63465;50.862;6.220;2024-01-30T11:22:42;101006.59;;;11.77;100.00
74905;BME280;63465;50.862;6.220;2024-01-30T11:25:11;101007.59;;;11.58;100.00
74905;BME280;63465;50.862;6.220;2024-01-30T11:27:37;100994.81;;;11.68;100.00
74905;BME280;63465;50.862;6.220;2024-01-30T11:30:03;101012.47;;;11.82;100.00
74905;BME280;63465;50.862;6.220;2024-01-30T11:32:28;101017.59;;;11.68;100.00
74905;BME280;63465;50.862;6.220;2024-01-30T11:34:55;101015.50;;;11.74;100.00
74905;BME280;63465;50.862;6.220;2024-01-30T11:37:21;101011.81;;;11.45;100.00
74905;BME280;63465;50.862;6.220;2024-01-30T11:39:50;101021.72;;;11.40;100.00
74905;BME280;63465;50.862;6.220;2024-01-30T11:42:16;100999.31;;;11.33;100.00
74905;BME280;63465;50.862;6.220;2024-01-30T11:44:46;101022.97;;;11.33;100.00
74905;BME280;63465;50.862;6.220;2024-01-30T11:47:12;101020.69;;;11.43;100.00
74905;BME280;63465;50.862;6.220;2024-01-30T11:49:37;101014.72;;;11.23;100.00
74905;BME280;63465;50.862;6.220;2024-01-30T11:52:03;101034.78;;;11.24;100.00
74905;BME280;63465;50.862;6.220;2024-01-30T11:54:29;101019.28;;;11.20;100.00
74905;BME280;63465;50.862;6.220;2024-01-30T11:56:54;101025.06;;;11.26;100.00
74905;BME280;63465;50.862;6.220;2024-01-30T11:59:19;101032.56;;;11.17;100.00
74905;BME280;63465;50.862;6.220;2024-01-30T12:01:45;101034.56;;;11.29;100.00
74905;BME280;63465;50.862;6.220;2024-01-30T12:04:10;101022.31;;;11.12;100.00
74905;BME280;63465;50.862;6.220;2024-01-30T12:06:35;101026.94;;;11.07;100.00
74905;BME280;63465;50.862;6.220;2024-01-30T12:09:03;101029.81;;;11.03;100.00
74905;BME280;63465;50.862;6.220;2024-01-30T12:11:43;101031.03;;;11.13;100.00
74905;BME280;63465;50.862;6.220;2024-01-30T12:14:09;101035.88;;;11.20;100.00
74905;BME280;63465;50.862;6.220;2024-01-30T12:16:35;101035.59;;;11.09;100.00
74905;BME280;63465;50.862;6.220;2024-01-30T12:19:00;101031.34;;;11.07;100.00
74905;BME280;63465;50.862;6.220;2024-01-30T12:21:27;101021.69;;;11.07;100.00
74905;BME280;63465;50.862;6.220;2024-01-30T12:23:52;101026.56;;;10.98;100.00
74905;BME280;63465;50.862;6.220;2024-01-30T12:26:18;101019.53;;;10.98;100.00
74905;BME280;63465;50.862;6.220;2024-01-30T12:28:49;101022.53;;;11.08;100.00
74905;BME280;63465;50.862;6.220;2024-01-30T12:31:15;101024.47;;;11.04;100.00
74905;BME280;63465;50.862;6.220;2024-01-30T12:33:40;101026.19;;;11.05;100.00
74905;BME280;63465;50.862;6.220;2024-01-30T12:36:06;101025.66;;;10.99;100.00
74905;BME280;63465;50.862;6.220;2024-01-30T12:38:32;101020.06;;;11.05;100.00